createdAt,value
2019-05-14T00:01:03.512Z,44.9
2019-05-14T00:06:03.849Z,44.9
2019-05-14T00:11:04.041Z,44.9
2019-05-14T00:16:04.475Z,44.8
2019-05-14T00:21:04.668Z,44.7
2019-05-14T00:26:04.850Z,44.7
2019-05-14T00:31:05.025Z,44.6
2019-05-14T00:36:05.228Z,44.6
2019-05-14T00:41:05.387Z,44.5
2019-05-14T00:46:05.573Z,44.5
2019-05-14T00:51:05.728Z,44.4
2019-05-14T00:56:05.905Z,44.4
2019-05-14T01:01:06.062Z,44.3
2019-05-14T01:06:06.254Z,44.2
2019-05-14T01:11:06.430Z,44.2
2019-05-14T01:16:06.589Z,44.1
2019-05-14T01:21:06.745Z,44.1
2019-05-14T01:26:06.918Z,44.1
2019-05-14T01:31:07.090Z,44
2019-05-14T01:36:07.256Z,43.9
2019-05-14T01:41:07.408Z,43.9
2019-05-14T01:46:07.577Z,43.8
2019-05-14T01:51:07.757Z,43.7
2019-05-14T01:56:07.913Z,43.7
2019-05-14T02:01:08.060Z,43.6
2019-05-14T02:06:08.231Z,43.6
2019-05-14T02:11:08.397Z,43.6
2019-05-14T02:16:08.555Z,43.5
2019-05-14T02:21:08.711Z,43.4
2019-05-14T02:26:11.267Z,43.4
2019-05-14T02:31:11.593Z,43.4
2019-05-14T02:36:12.469Z,43.3
2019-05-14T02:41:14.313Z,43.3
2019-05-14T02:46:17.300Z,43.2
2019-05-14T02:51:19.756Z,43.1
2019-05-14T02:56:20.626Z,43.1
2019-05-14T03:01:22.557Z,43.1
2019-05-14T03:06:22.712Z,43
2019-05-14T03:11:22.868Z,42.9
2019-05-14T03:16:30.715Z,42.9
2019-05-14T03:21:34.461Z,42.9
2019-05-14T03:26:39.465Z,42.8
2019-05-14T03:31:42.444Z,42.7
2019-05-14T03:36:44.072Z,42.7
2019-05-14T03:41:46.099Z,42.6
2019-05-14T03:46:54.503Z,42.6
2019-05-14T03:51:55.348Z,42.6
2019-05-14T03:57:00.077Z,42.5
2019-05-14T04:02:02.190Z,42.4
2019-05-14T04:07:03.997Z,42.4
2019-05-14T04:12:05.812Z,42.4
2019-05-14T04:17:10.789Z,42.3
2019-05-14T04:22:18.881Z,42.2
2019-05-14T04:27:20.974Z,42.1
2019-05-14T04:32:22.810Z,42.1
2019-05-14T04:37:24.611Z,42.1
2019-05-14T04:42:29.213Z,42
2019-05-14T04:47:36.760Z,41.9
2019-05-14T04:52:40.209Z,41.9
2019-05-14T04:57:42.249Z,41.9
2019-05-14T05:02:43.976Z,41.8
2019-05-14T05:07:48.800Z,41.7
2019-05-14T05:12:50.928Z,41.7
2019-05-14T05:17:53.249Z,41.7
2019-05-14T05:22:55.099Z,41.6
2019-05-14T05:27:59.478Z,41.6
2019-05-14T05:33:01.518Z,41.5
2019-05-14T05:38:03.247Z,41.5
2019-05-14T05:43:04.973Z,41.4
2019-05-14T05:48:08.186Z,41.4
2019-05-14T05:53:10.055Z,41.4
2019-05-14T05:58:11.771Z,41.3
2019-05-14T06:03:13.714Z,41.2
2019-05-14T06:08:15.442Z,41.2
2019-05-14T06:13:18.215Z,41.2
2019-05-14T06:18:22.062Z,41.2
2019-05-14T06:23:23.975Z,41.1
2019-05-14T06:28:29.848Z,41.1
2019-05-14T06:33:34.184Z,41
2019-05-14T06:38:38.565Z,41
2019-05-14T06:43:40.529Z,40.9
2019-05-14T06:48:42.285Z,40.9
2019-05-14T06:53:44.063Z,40.9
2019-05-14T06:58:45.833Z,40.8
2019-05-14T07:03:48.883Z,40.8
2019-05-14T07:08:52.719Z,40.8
2019-05-14T07:13:54.682Z,40.7
2019-05-14T07:18:58.850Z,40.7
2019-05-14T07:24:00.794Z,40.6
2019-05-14T07:29:02.581Z,40.6
2019-05-14T07:34:04.338Z,40.6
2019-05-14T07:39:08.979Z,40.5
2019-05-14T07:44:11.051Z,40.4
2019-05-14T07:49:12.798Z,40.4
2019-05-14T07:54:14.823Z,40.4
2019-05-14T07:59:18.060Z,40.3
2019-05-14T08:04:20.137Z,40.3
2019-05-14T08:09:21.971Z,40.2
2019-05-14T08:14:23.721Z,40.2
2019-05-14T08:19:27.746Z,40.2
2019-05-14T08:24:30.876Z,40.1
2019-05-14T08:29:32.619Z,40.1
2019-05-14T08:34:34.344Z,40.1
2019-05-14T08:39:36.087Z,40
2019-05-14T08:44:38.911Z,40
2019-05-14T08:49:46.096Z,39.9
2019-05-14T08:54:49.211Z,39.9
2019-05-14T08:59:55.489Z,39.9
2019-05-14T09:05:02.673Z,39.8
2019-05-14T09:10:05.577Z,39.8
2019-05-14T09:15:09.702Z,39.7
2019-05-14T09:20:12.059Z,39.7
2019-05-14T09:25:13.892Z,39.7
2019-05-14T09:30:18.211Z,39.6
2019-05-14T09:35:20.285Z,39.6
2019-05-14T09:40:21.680Z,39.6
2019-05-14T09:45:23.388Z,39.6
2019-05-14T09:50:25.099Z,39.5
2019-05-14T09:55:28.180Z,39.5
2019-05-14T10:00:30.062Z,39.4
2019-05-14T10:05:31.322Z,39.4
2019-05-14T10:10:33.034Z,39.3
2019-05-14T10:15:34.776Z,39.3
2019-05-14T10:20:44.688Z,39.2
2019-05-14T10:25:46.153Z,39.2
2019-05-14T10:30:49.051Z,39.2
2019-05-14T10:35:50.833Z,39.2
2019-05-14T10:40:52.542Z,39.1
2019-05-14T10:45:54.223Z,39.1
2019-05-14T10:51:02.497Z,39.1
2019-05-14T10:56:04.564Z,39.1
2019-05-14T11:01:10.939Z,39
2019-05-14T11:06:13.029Z,38.9
2019-05-14T11:11:14.275Z,38.9
2019-05-14T11:16:15.978Z,38.9
2019-05-14T11:21:25.144Z,38.9
2019-05-14T11:26:29.383Z,38.8
2019-05-14T11:31:34.165Z,38.8
2019-05-14T11:36:38.649Z,38.7
2019-05-14T11:41:40.608Z,38.7
2019-05-14T11:46:51.211Z,38.7
2019-05-14T11:52:03.597Z,38.7
2019-05-14T11:57:11.098Z,38.6
2019-05-14T12:07:19.749Z,38.6
2019-05-14T12:12:21.005Z,38.5
2019-05-14T12:17:22.708Z,38.5
2019-05-14T12:22:23.679Z,38.4
2019-05-14T12:27:25.423Z,38.4
2019-05-14T12:32:26.176Z,38.4
2019-05-14T12:37:28.891Z,38.4
2019-05-14T12:42:30.782Z,38.3
2019-05-14T12:52:39.200Z,38.3
2019-05-14T12:57:41.008Z,38.2
2019-05-14T13:02:42.705Z,38.2
2019-05-14T13:07:43.656Z,38.2
2019-05-14T13:12:45.352Z,38.2
2019-05-14T13:17:48.372Z,38.1
2019-05-14T13:22:50.574Z,38.1
2019-05-14T13:27:52.372Z,38.1
2019-05-14T13:32:54.041Z,38.1
2019-05-14T13:37:58.437Z,38
2019-05-14T13:43:00.277Z,38
2019-05-14T13:48:01.908Z,37.9
2019-05-14T13:53:08.881Z,37.9
2019-05-14T13:58:13.936Z,37.9
2019-05-14T14:03:15.115Z,37.9
2019-05-14T14:08:19.081Z,37.8
2019-05-14T14:13:20.925Z,37.8
2019-05-14T14:18:22.561Z,37.7
2019-05-14T14:23:27.966Z,37.7
2019-05-14T14:28:31.862Z,37.7
2019-05-14T14:33:33.470Z,37.7
2019-05-14T14:38:35.111Z,37.6
2019-05-14T14:43:42.277Z,37.6
2019-05-14T14:48:44.034Z,37.6
2019-05-14T14:53:54.677Z,37.6
2019-05-14T14:59:00.519Z,37.5
2019-05-14T15:04:02.135Z,37.5
2019-05-14T15:09:03.758Z,37.4
2019-05-14T15:14:04.425Z,37.4
2019-05-14T15:19:06.041Z,37.4
2019-05-14T15:24:14.717Z,37.4
2019-05-14T15:29:18.624Z,37.4
2019-05-14T15:34:20.445Z,37.3
2019-05-14T15:39:22.537Z,37.3
2019-05-14T15:44:24.260Z,37.2
2019-05-14T15:49:28.184Z,38.7
2019-05-14T15:54:41.998Z,40
2019-05-14T15:59:44.224Z,40.9
2019-05-14T16:04:45.953Z,41.7
2019-05-14T16:09:49.336Z,42.4
2019-05-14T16:14:51.428Z,43.1
2019-05-14T16:19:52.590Z,43.7
2019-05-14T16:24:56.718Z,44.2
2019-05-14T16:29:58.575Z,44.7
2019-05-14T16:34:58.967Z,45.1
2019-05-14T16:39:59.223Z,45.3
2019-05-14T16:44:59.475Z,45.5
2019-05-14T16:49:59.723Z,45.6
2019-05-14T16:55:15.326Z,45.9
2019-05-14T17:00:20.608Z,46.4
2019-05-14T17:05:20.877Z,46.6
2019-05-14T17:10:21.180Z,46.8
2019-05-14T17:15:21.452Z,46.9
2019-05-14T17:20:24.316Z,46.8
2019-05-14T17:25:26.861Z,46.7
2019-05-14T17:30:29.856Z,47.1
2019-05-14T17:35:30.154Z,47.4
2019-05-14T17:40:30.458Z,47.6
2019-05-14T17:45:31.464Z,47.7
2019-05-14T17:50:31.744Z,47.9
2019-05-14T17:55:43.452Z,48
2019-05-14T18:00:44.061Z,48
2019-05-14T18:05:44.398Z,48.1
2019-05-14T18:10:44.714Z,48.1
2019-05-14T18:15:45.026Z,48.1
2019-05-14T18:20:45.388Z,48.2
2019-05-14T18:26:00.610Z,48
2019-05-14T18:31:04.162Z,47.7
2019-05-14T18:36:04.441Z,47.9
2019-05-14T18:41:04.715Z,47.8
2019-05-14T18:46:04.989Z,48.1
2019-05-14T18:51:09.097Z,48.3
2019-05-14T18:56:19.746Z,48.3
2019-05-14T19:01:21.406Z,48.3
2019-05-14T19:06:21.750Z,48.3
2019-05-14T19:11:22.066Z,48.1
2019-05-14T19:16:22.498Z,47.9
2019-05-14T19:21:22.789Z,47.8
2019-05-14T19:26:33.305Z,47.7
2019-05-14T19:31:35.062Z,47.7
2019-05-14T19:36:35.357Z,47.6
2019-05-14T19:41:38.863Z,47.6
2019-05-14T19:46:39.865Z,47.5
2019-05-14T19:51:40.355Z,47.4
2019-05-14T19:56:52.994Z,47.3
2019-05-14T20:01:58.782Z,47.2
2019-05-14T20:06:59.304Z,47.2
2019-05-14T20:11:59.541Z,47.1
2019-05-14T20:16:59.782Z,47.1
2019-05-14T20:22:00.033Z,47
2019-05-14T20:27:07.775Z,46.9
2019-05-14T20:32:08.903Z,46.8
2019-05-14T20:37:09.210Z,46.7
2019-05-14T20:42:09.469Z,46.7
2019-05-14T20:47:09.750Z,46.6
2019-05-14T20:52:09.998Z,46.5
2019-05-14T20:57:23.225Z,46.4
2019-05-14T21:02:24.735Z,46.4
2019-05-14T21:07:25.013Z,46.2
2019-05-14T21:12:25.292Z,46.2
2019-05-14T21:17:28.069Z,46.1
2019-05-14T21:22:29.121Z,46
2019-05-14T21:27:40.581Z,45.9
2019-05-14T21:32:44.185Z,45.9
2019-05-14T21:37:44.453Z,45.8
2019-05-14T21:42:44.709Z,45.7
2019-05-14T21:47:44.944Z,45.6
2019-05-14T21:52:45.208Z,45.6
2019-05-14T21:57:54.118Z,45.4
2019-05-14T22:02:58.407Z,45.4
2019-05-14T22:07:58.883Z,45.3
2019-05-14T22:12:59.095Z,45.2
2019-05-14T22:17:59.312Z,45.1
2019-05-14T22:22:59.521Z,45.1
2019-05-14T22:28:11.094Z,45
2019-05-14T22:33:12.476Z,44.9
2019-05-14T22:38:12.657Z,44.8
2019-05-14T22:43:12.850Z,44.7
2019-05-14T22:48:13.035Z,44.7
2019-05-14T22:53:13.239Z,44.6
2019-05-14T22:58:25.105Z,44.6
2019-05-14T23:03:25.682Z,44.4
2019-05-14T23:08:25.859Z,44.4
2019-05-14T23:13:27.970Z,44.3
2019-05-14T23:18:28.727Z,44.2
2019-05-14T23:23:29.014Z,44.2
2019-05-14T23:28:41.294Z,44.1
2019-05-14T23:33:42.034Z,44
2019-05-14T23:38:42.467Z,43.9
2019-05-14T23:43:42.649Z,43.9
2019-05-14T23:48:43.039Z,43.8
2019-05-14T23:53:43.250Z,43.7
2019-05-14T23:58:54.556Z,43.7
